sensor_id;sensor_type;location;lat;lon;timestamp;pressure;altitude;pressure_sealevel;temperature;humidity
4745;BME280;2386;42.138;24.746;2022-09-09T00:04:28;99777.66;;;20.91;100.00
4745;BME280;2386;42.138;24.746;2022-09-09T00:12:51;99781.47;;;20.77;100.00
4745;BME280;2386;42.138;24.746;2022-09-09T00:15:26;99790.25;;;20.79;100.00
4745;BME280;2386;42.138;24.746;2022-09-09T00:21:13;99778.53;;;20.68;100.00
4745;BME280;2386;42.138;24.746;2022-09-09T00:23:47;99782.34;;;20.72;100.00
4745;BME280;2386;42.138;24.746;2022-09-09T00:29:03;99786.31;;;20.61;100.00
4745;BME280;2386;42.138;24.746;2022-09-09T00:31:31;99795.00;;;20.49;100.00
4745;BME280;2386;42.138;24.746;2022-09-09T00:34:05;99790.06;;;20.46;100.00
4745;BME280;2386;42.138;24.746;2022-09-09T00:36:35;99804.09;;;20.50;100.00
4745;BME280;2386;42.138;24.746;2022-09-09T00:39:03;99804.84;;;20.55;100.00
4745;BME280;2386;42.138;24.746;2022-09-09T00:44:03;99787.56;;;20.50;100.00
4745;BME280;2386;42.138;24.746;2022-09-09T00:49:32;99790.66;;;20.43;100.00
4745;BME280;2386;42.138;24.746;2022-09-09T00:55:03;99789.38;;;20.30;100.00
4745;BME280;2386;42.138;24.746;2022-09-09T00:57:35;99798.22;;;20.27;100.00
4745;BME280;2386;42.138;24.746;2022-09-09T01:00:24;99804.63;;;20.18;100.00
4745;BME280;2386;42.138;24.746;2022-09-09T01:08:35;99808.75;;;20.20;100.00
4745;BME280;2386;42.138;24.746;2022-09-09T01:11:10;99810.09;;;20.23;100.00
4745;BME280;2386;42.138;24.746;2022-09-09T01:13:41;99790.00;;;20.22;100.00
4745;BME280;2386;42.138;24.746;2022-09-09T01:16:10;99799.28;;;20.31;100.00
4745;BME280;2386;42.138;24.746;2022-09-09T01:18:49;99799.84;;;20.28;100.00
4745;BME280;2386;42.138;24.746;2022-09-09T01:24:42;99793.63;;;20.18;100.00
4745;BME280;2386;42.138;24.746;2022-09-09T01:27:13;99780.97;;;20.17;100.00
4745;BME280;2386;42.138;24.746;2022-09-09T01:29:40;99799.13;;;20.18;100.00
4745;BME280;2386;42.138;24.746;2022-09-09T01:35:09;99806.63;;;20.12;100.00
4745;BME280;2386;42.138;24.746;2022-09-09T01:37:36;99793.25;;;20.00;100.00
4745;BME280;2386;42.138;24.746;2022-09-09T01:40:02;99793.25;;;20.00;100.00
4745;BME280;2386;42.138;24.746;2022-09-09T01:42:27;99795.72;;;20.02;100.00
4745;BME280;2386;42.138;24.746;2022-09-09T01:44:52;99795.47;;;19.98;100.00
4745;BME280;2386;42.138;24.746;2022-09-09T01:47:19;99789.16;;;19.98;100.00
4745;BME280;2386;42.138;24.746;2022-09-09T01:49:45;99787.06;;;19.85;100.00
4745;BME280;2386;42.138;24.746;2022-09-09T01:52:10;99787.06;;;19.85;100.00
4745;BME280;2386;42.138;24.746;2022-09-09T01:54:36;99777.41;;;19.87;100.00
4745;BME280;2386;42.138;24.746;2022-09-09T01:57:23;99787.59;;;19.87;100.00
4745;BME280;2386;42.138;24.746;2022-09-09T02:00:07;99787.91;;;19.80;100.00
4745;BME280;2386;42.138;24.746;2022-09-09T02:05:32;99797.97;;;19.95;100.00
4745;BME280;2386;42.138;24.746;2022-09-09T02:10:50;99795.28;;;19.90;100.00
4745;BME280;2386;42.138;24.746;2022-09-09T02:13:20;99799.19;;;19.84;100.00
4745;BME280;2386;42.138;24.746;2022-09-09T02:15:56;99794.81;;;19.78;100.00
4745;BME280;2386;42.138;24.746;2022-09-09T02:18:40;99801.88;;;19.89;100.00
4745;BME280;2386;42.138;24.746;2022-09-09T02:21:07;99782.69;;;19.79;100.00
4745;BME280;2386;42.138;24.746;2022-09-09T02:23:34;99777.97;;;19.84;100.00
4745;BME280;2386;42.138;24.746;2022-09-09T02:26:01;99781.25;;;19.86;100.00
4745;BME280;2386;42.138;24.746;2022-09-09T02:28:30;99781.41;;;19.66;100.00
4745;BME280;2386;42.138;24.746;2022-09-09T02:30:57;99778.16;;;19.59;100.00
4745;BME280;2386;42.138;24.746;2022-09-09T02:33:26;99782.81;;;19.63;100.00
4745;BME280;2386;42.138;24.746;2022-09-09T02:35:53;99788.84;;;19.65;100.00
4745;BME280;2386;42.138;24.746;2022-09-09T02:38:22;99785.53;;;19.68;100.00
4745;BME280;2386;42.138;24.746;2022-09-09T02:40:51;99790.22;;;19.68;100.00
4745;BME280;2386;42.138;24.746;2022-09-09T02:43:17;99787.78;;;19.61;100.00
4745;BME280;2386;42.138;24.746;2022-09-09T02:52:05;99797.09;;;19.65;100.00
4745;BME280;2386;42.138;24.746;2022-09-09T02:54:34;99800.94;;;19.69;100.00
4745;BME280;2386;42.138;24.746;2022-09-09T02:59:29;99788.38;;;19.48;100.00
4745;BME280;2386;42.138;24.746;2022-09-09T03:01:55;99799.41;;;19.43;100.00
4745;BME280;2386;42.138;24.746;2022-09-09T03:04:21;99808.22;;;19.45;100.00
4745;BME280;2386;42.138;24.746;2022-09-09T03:06:47;99803.81;;;19.44;100.00
4745;BME280;2386;42.138;24.746;2022-09-09T03:09:12;99801.06;;;19.44;100.00
4745;BME280;2386;42.138;24.746;2022-09-09T03:11:38;99793.38;;;19.41;100.00
4745;BME280;2386;42.138;24.746;2022-09-09T03:14:04;99786.78;;;19.42;100.00
4745;BME280;2386;42.138;24.746;2022-09-09T03:16:29;99792.25;;;19.52;100.00
4745;BME280;2386;42.138;24.746;2022-09-09T03:18:55;99799.41;;;19.43;100.00
4745;BME280;2386;42.138;24.746;2022-09-09T03:21:20;99802.47;;;19.36;100.00
4745;BME280;2386;42.138;24.746;2022-09-09T03:23:46;99807.66;;;19.53;100.00
4745;BME280;2386;42.138;24.746;2022-09-09T03:26:12;99815.94;;;19.43;100.00
4745;BME280;2386;42.138;24.746;2022-09-09T03:28:39;99817.56;;;19.44;100.00
4745;BME280;2386;42.138;24.746;2022-09-09T03:31:05;99817.00;;;19.52;100.00
4745;BME280;2386;42.138;24.746;2022-09-09T03:33:31;99823.34;;;19.48;100.00
4745;BME280;2386;42.138;24.746;2022-09-09T03:35:57;99827.72;;;19.54;100.00
4745;BME280;2386;42.138;24.746;2022-09-09T03:38:25;99830.19;;;19.55;100.00
4745;BME280;2386;42.138;24.746;2022-09-09T03:40:52;99826.91;;;19.53;100.00
4745;BME280;2386;42.138;24.746;2022-09-09T03:43:25;99832.66;;;19.57;100.00
4745;BME280;2386;42.138;24.746;2022-09-09T03:45:51;99826.56;;;19.65;100.00
4745;BME280;2386;42.138;24.746;2022-09-09T03:48:18;99836.19;;;19.67;100.00
4745;BME280;2386;42.138;24.746;2022-09-09T03:50:45;99828.81;;;19.58;100.00
4745;BME280;2386;42.138;24.746;2022-09-09T03:53:11;99821.91;;;19.60;100.00
4745;BME280;2386;42.138;24.746;2022-09-09T03:55:36;99833.13;;;19.69;100.00
4745;BME280;2386;42.138;24.746;2022-09-09T03:58:02;99821.91;;;19.60;100.00
4745;BME280;2386;42.138;24.746;2022-09-09T04:00:27;99827.41;;;19.60;100.00
4745;BME280;2386;42.138;24.746;2022-09-09T04:02:54;99814.59;;;19.35;100.00
4745;BME280;2386;42.138;24.746;2022-09-09T04:05:22;99822.56;;;19.37;100.00
4745;BME280;2386;42.138;24.746;2022-09-09T04:07:47;99813.84;;;19.25;100.00
4745;BME280;2386;42.138;24.746;2022-09-09T04:10:12;99829.19;;;19.36;100.00
4745;BME280;2386;42.138;24.746;2022-09-09T04:12:38;99827.00;;;19.33;100.00
4745;BME280;2386;42.138;24.746;2022-09-09T04:15:04;99826.94;;;19.43;100.00
4745;BME280;2386;42.138;24.746;2022-09-09T04:17:30;99830.34;;;19.30;100.00
4745;BME280;2386;42.138;24.746;2022-09-09T04:19:56;99837.44;;;19.36;100.00
4745;BME280;2386;42.138;24.746;2022-09-09T04:22:22;99828.63;;;19.34;100.00
4745;BME280;2386;42.138;24.746;2022-09-09T04:24:47;99826.69;;;19.40;100.00
4745;BME280;2386;42.138;24.746;2022-09-09T04:27:13;99806.00;;;19.47;100.00
4745;BME280;2386;42.138;24.746;2022-09-09T04:29:38;99802.44;;;19.52;100.00
4745;BME280;2386;42.138;24.746;2022-09-09T04:32:04;99815.41;;;19.36;100.00
4745;BME280;2386;42.138;24.746;2022-09-09T04:34:30;99820.09;;;19.35;100.00
4745;BME280;2386;42.138;24.746;2022-09-09T04:36:56;99825.97;;;19.24;100.00
4745;BME280;2386;42.138;24.746;2022-09-09T04:39:22;99827.88;;;19.23;100.00
4745;BME280;2386;42.138;24.746;2022-09-09T04:41:47;99823.47;;;19.27;100.00
4745;BME280;2386;42.138;24.746;2022-09-09T04:44:13;99828.09;;;19.32;100.00
4745;BME280;2386;42.138;24.746;2022-09-09T04:46:39;99829.50;;;19.29;100.00
4745;BME280;2386;42.138;24.746;2022-09-09T04:49:06;99839.00;;;19.47;100.00
4745;BME280;2386;42.138;24.746;2022-09-09T04:51:31;99827.19;;;19.47;100.00
4745;BME280;2386;42.138;24.746;2022-09-09T04:53:57;99843.69;;;19.52;100.00
4745;BME280;2386;42.138;24.746;2022-09-09T04:56:22;99844.25;;;19.54;100.00
4745;BME280;2386;42.138;24.746;2022-09-09T04:58:48;99840.16;;;19.41;100.00
4745;BME280;2386;42.138;24.746;2022-09-09T05:01:15;99859.78;;;19.29;100.00
4745;BME280;2386;42.138;24.746;2022-09-09T05:03:42;99857.59;;;19.21;100.00
4745;BME280;2386;42.138;24.746;2022-09-09T05:06:10;99852.63;;;19.28;100.00
4745;BME280;2386;42.138;24.746;2022-09-09T05:08:37;99844.13;;;19.20;100.00
4745;BME280;2386;42.138;24.746;2022-09-09T05:11:03;99849.91;;;19.18;100.00
4745;BME280;2386;42.138;24.746;2022-09-09T05:13:29;99851.81;;;19.23;100.00
4745;BME280;2386;42.138;24.746;2022-09-09T05:15:56;99843.59;;;19.18;100.00
4745;BME280;2386;42.138;24.746;2022-09-09T05:18:22;99839.47;;;19.20;100.00
4745;BME280;2386;42.138;24.746;2022-09-09T05:20:48;99846.25;;;19.33;100.00
4745;BME280;2386;42.138;24.746;2022-09-09T05:23:14;99843.47;;;19.38;100.00
4745;BME280;2386;42.138;24.746;2022-09-09T05:25:39;99834.91;;;19.45;100.00
4745;BME280;2386;42.138;24.746;2022-09-09T05:28:08;99836.47;;;19.66;100.00
4745;BME280;2386;42.138;24.746;2022-09-09T05:30:34;99844.38;;;19.78;100.00
4745;BME280;2386;42.138;24.746;2022-09-09T05:33:00;99841.53;;;19.88;100.00
4745;BME280;2386;42.138;24.746;2022-09-09T05:35:27;99847.56;;;19.95;100.00
4745;BME280;2386;42.138;24.746;2022-09-09T05:37:52;99844.38;;;19.78;100.00
4745;BME280;2386;42.138;24.746;2022-09-09T05:40:18;99853.69;;;19.82;100.00
4745;BME280;2386;42.138;24.746;2022-09-09T05:42:43;99845.63;;;19.51;100.00
4745;BME280;2386;42.138;24.746;2022-09-09T05:45:09;99856.84;;;19.65;100.00
4745;BME280;2386;42.138;24.746;2022-09-09T05:47:35;99848.56;;;19.65;100.00
4745;BME280;2386;42.138;24.746;2022-09-09T05:50:02;99841.19;;;19.55;100.00
4745;BME280;2386;42.138;24.746;2022-09-09T05:52:28;99841.19;;;19.55;100.00
4745;BME280;2386;42.138;24.746;2022-09-09T05:54:53;99834.00;;;19.64;100.00
4745;BME280;2386;42.138;24.746;2022-09-09T05:57:20;99837.09;;;19.53;100.00
4745;BME280;2386;42.138;24.746;2022-09-09T05:59:46;99842.28;;;19.59;100.00
4745;BME280;2386;42.138;24.746;2022-09-09T06:02:11;99848.03;;;19.63;100.00
4745;BME280;2386;42.138;24.746;2022-09-09T06:04:38;99832.84;;;19.71;99.39
4745;BME280;2386;42.138;24.746;2022-09-09T06:07:04;99824.97;;;19.93;98.50
4745;BME280;2386;42.138;24.746;2022-09-09T06:09:30;99822.91;;;20.09;98.15
4745;BME280;2386;42.138;24.746;2022-09-09T06:11:56;99817.84;;;20.21;95.66
4745;BME280;2386;42.138;24.746;2022-09-09T06:14:23;99814.16;;;20.30;94.53
4745;BME280;2386;42.138;24.746;2022-09-09T06:16:50;99820.69;;;20.45;94.15
4745;BME280;2386;42.138;24.746;2022-09-09T06:19:16;99817.81;;;20.55;94.40
4745;BME280;2386;42.138;24.746;2022-09-09T06:21:42;99826.28;;;20.63;92.58
4745;BME280;2386;42.138;24.746;2022-09-09T06:24:09;99826.63;;;20.57;89.76
4745;BME280;2386;42.138;24.746;2022-09-09T06:26:39;99806.91;;;20.45;89.49
4745;BME280;2386;42.138;24.746;2022-09-09T06:29:09;99804.38;;;20.48;89.86
4745;BME280;2386;42.138;24.746;2022-09-09T06:31:36;99812.59;;;20.53;89.77
4745;BME280;2386;42.138;24.746;2022-09-09T06:34:14;99811.34;;;20.41;89.11
4745;BME280;2386;42.138;24.746;2022-09-09T06:36:39;99831.66;;;20.50;90.21
4745;BME280;2386;42.138;24.746;2022-09-09T06:39:06;99829.97;;;20.54;90.61
4745;BME280;2386;42.138;24.746;2022-09-09T06:41:32;99834.34;;;20.55;91.10
4745;BME280;2386;42.138;24.746;2022-09-09T06:43:58;99834.31;;;20.60;90.65
4745;BME280;2386;42.138;24.746;2022-09-09T06:46:26;99835.38;;;20.64;89.89
4745;BME280;2386;42.138;24.746;2022-09-09T06:49:21;99833.44;;;20.64;91.40
4745;BME280;2386;42.138;24.746;2022-09-09T06:51:47;99833.09;;;20.71;94.72
4745;BME280;2386;42.138;24.746;2022-09-09T06:54:12;99843.28;;;20.71;88.72
4745;BME280;2386;42.138;24.746;2022-09-09T06:56:39;99838.00;;;20.74;88.80
4745;BME280;2386;42.138;24.746;2022-09-09T06:59:09;99835.13;;;20.84;88.52
4745;BME280;2386;42.138;24.746;2022-09-09T07:01:36;99839.94;;;20.97;89.81
4745;BME280;2386;42.138;24.746;2022-09-09T07:04:04;99835.47;;;21.02;89.06
4745;BME280;2386;42.138;24.746;2022-09-09T07:06:37;99831.00;;;21.06;89.07
4745;BME280;2386;42.138;24.746;2022-09-09T07:09:05;99834.88;;;21.05;88.07
4745;BME280;2386;42.138;24.746;2022-09-09T07:11:39;99839.88;;;21.03;87.90
4745;BME280;2386;42.138;24.746;2022-09-09T07:14:05;99829.28;;;21.10;88.71
4745;BME280;2386;42.138;24.746;2022-09-09T07:16:30;99812.09;;;21.18;94.15
4745;BME280;2386;42.138;24.746;2022-09-09T07:19:00;99820.56;;;21.45;91.11
4745;BME280;2386;42.138;24.746;2022-09-09T07:21:29;99831.91;;;21.62;92.83
4745;BME280;2386;42.138;24.746;2022-09-09T07:23:54;99831.97;;;21.76;89.72
4745;BME280;2386;42.138;24.746;2022-09-09T07:26:27;99826.00;;;21.88;91.51
4745;BME280;2386;42.138;24.746;2022-09-09T07:28:53;99837.78;;;21.75;81.11
4745;BME280;2386;42.138;24.746;2022-09-09T07:31:22;99838.84;;;21.79;89.57
4745;BME280;2386;42.138;24.746;2022-09-09T07:33:48;99833.00;;;21.99;90.10
4745;BME280;2386;42.138;24.746;2022-09-09T07:36:15;99838.53;;;21.99;81.61
4745;BME280;2386;42.138;24.746;2022-09-09T07:38:44;99824.34;;;22.06;81.70
4745;BME280;2386;42.138;24.746;2022-09-09T07:41:15;99828.38;;;22.13;80.30
4745;BME280;2386;42.138;24.746;2022-09-09T07:43:42;99835.16;;;22.21;80.90
4745;BME280;2386;42.138;24.746;2022-09-09T07:46:10;99825.75;;;22.22;81.05
4745;BME280;2386;42.138;24.746;2022-09-09T07:48:36;99823.66;;;22.14;78.16
4745;BME280;2386;42.138;24.746;2022-09-09T07:51:14;99813.13;;;22.29;79.70
4745;BME280;2386;42.138;24.746;2022-09-09T07:53:45;99813.88;;;22.35;79.61
4745;BME280;2386;42.138;24.746;2022-09-09T07:56:14;99814.50;;;22.46;80.04
4745;BME280;2386;42.138;24.746;2022-09-09T07:58:44;99816.38;;;22.50;73.90
4745;BME280;2386;42.138;24.746;2022-09-09T08:01:12;99809.31;;;22.58;74.86
4745;BME280;2386;42.138;24.746;2022-09-09T08:03:38;99810.03;;;22.63;73.95
4745;BME280;2386;42.138;24.746;2022-09-09T08:06:08;99801.47;;;22.79;74.25
4745;BME280;2386;42.138;24.746;2022-09-09T08:08:35;99800.66;;;22.92;74.47
4745;BME280;2386;42.138;24.746;2022-09-09T08:11:14;99801.47;;;22.92;73.53
4745;BME280;2386;42.138;24.746;2022-09-09T08:13:41;99803.28;;;23.11;77.93
4745;BME280;2386;42.138;24.746;2022-09-09T08:16:21;99799.66;;;23.24;78.70
4745;BME280;2386;42.138;24.746;2022-09-09T08:18:48;99791.19;;;23.07;70.27
4745;BME280;2386;42.138;24.746;2022-09-09T08:21:17;99811.06;;;23.09;70.04
4745;BME280;2386;42.138;24.746;2022-09-09T08:23:44;99796.50;;;23.17;73.07
4745;BME280;2386;42.138;24.746;2022-09-09T08:28:38;99792.59;;;23.32;71.92
4745;BME280;2386;42.138;24.746;2022-09-09T08:31:16;99787.84;;;23.46;74.48
4745;BME280;2386;42.138;24.746;2022-09-09T08:33:43;99791.09;;;23.48;68.95
4745;BME280;2386;42.138;24.746;2022-09-09T08:36:14;99788.84;;;23.50;70.49
4745;BME280;2386;42.138;24.746;2022-09-09T08:38:41;99792.25;;;23.47;69.19
4745;BME280;2386;42.138;24.746;2022-09-09T08:52:39;99779.88;;;23.89;69.08
4745;BME280;2386;42.138;24.746;2022-09-09T08:55:29;99776.84;;;23.99;69.90
4745;BME280;2386;42.138;24.746;2022-09-09T08:57:58;99760.09;;;24.04;73.81
4745;BME280;2386;42.138;24.746;2022-09-09T09:00:40;99778.22;;;24.10;67.25
4745;BME280;2386;42.138;24.746;2022-09-09T09:05:46;99775.38;;;24.24;67.06
4745;BME280;2386;42.138;24.746;2022-09-09T09:08:26;99770.91;;;24.37;72.68
4745;BME280;2386;42.138;24.746;2022-09-09T09:10:57;99766.25;;;24.46;67.35
4745;BME280;2386;42.138;24.746;2022-09-09T09:13:35;99765.28;;;24.59;66.48
4745;BME280;2386;42.138;24.746;2022-09-09T09:16:38;99760.59;;;24.68;68.37
4745;BME280;2386;42.138;24.746;2022-09-09T09:19:08;99746.06;;;24.71;68.87
4745;BME280;2386;42.138;24.746;2022-09-09T09:30:37;99729.38;;;25.02;63.98
4745;BME280;2386;42.138;24.746;2022-09-09T09:35:45;99732.03;;;25.25;64.47
4745;BME280;2386;42.138;24.746;2022-09-09T09:38:25;99729.06;;;25.21;62.48
4745;BME280;2386;42.138;24.746;2022-09-09T09:40:57;99725.94;;;25.31;65.67
4745;BME280;2386;42.138;24.746;2022-09-09T09:43:32;99720.25;;;25.36;62.60
4745;BME280;2386;42.138;24.746;2022-09-09T09:45:58;99720.25;;;25.36;60.65
4745;BME280;2386;42.138;24.746;2022-09-09T09:48:25;99715.50;;;25.45;60.75
4745;BME280;2386;42.138;24.746;2022-09-09T09:51:00;99712.72;;;25.54;62.24
4745;BME280;2386;42.138;24.746;2022-09-09T09:53:29;99712.22;;;25.61;61.06
4745;BME280;2386;42.138;24.746;2022-09-09T09:56:01;99716.50;;;25.67;60.39
4745;BME280;2386;42.138;24.746;2022-09-09T09:58:31;99707.34;;;25.75;60.50
4745;BME280;2386;42.138;24.746;2022-09-09T10:01:00;99700.16;;;25.74;60.16
4745;BME280;2386;42.138;24.746;2022-09-09T10:03:32;99704.03;;;25.90;59.97
4745;BME280;2386;42.138;24.746;2022-09-09T10:06:03;99700.28;;;25.95;59.18
4745;BME280;2386;42.138;24.746;2022-09-09T10:08:28;99697.97;;;25.97;59.42
4745;BME280;2386;42.138;24.746;2022-09-09T10:14:10;99680.06;;;26.15;59.45
4745;BME280;2386;42.138;24.746;2022-09-09T10:19:45;99675.44;;;26.28;60.83
4745;BME280;2386;42.138;24.746;2022-09-09T10:22:25;99684.78;;;26.32;60.72
4745;BME280;2386;42.138;24.746;2022-09-09T10:30:38;99688.44;;;26.53;60.22
4745;BME280;2386;42.138;24.746;2022-09-09T10:33:10;99682.69;;;26.58;60.64
4745;BME280;2386;42.138;24.746;2022-09-09T10:36:03;99686.72;;;26.69;59.91
4745;BME280;2386;42.138;24.746;2022-09-09T10:38:46;99673.38;;;26.75;58.80
4745;BME280;2386;42.138;24.746;2022-09-09T10:41:16;99684.47;;;26.83;59.76
4745;BME280;2386;42.138;24.746;2022-09-09T10:49:56;99673.94;;;26.98;59.14
4745;BME280;2386;42.138;24.746;2022-09-09T10:55:17;99663.06;;;27.05;56.85
4745;BME280;2386;42.138;24.746;2022-09-09T10:57:50;99662.19;;;27.13;58.07
4745;BME280;2386;42.138;24.746;2022-09-09T11:00:24;99658.38;;;27.17;57.73
4745;BME280;2386;42.138;24.746;2022-09-09T11:02:55;99655.53;;;27.26;58.49
4745;BME280;2386;42.138;24.746;2022-09-09T11:05:27;99651.56;;;27.27;56.15
4745;BME280;2386;42.138;24.746;2022-09-09T11:08:08;99654.97;;;27.33;56.23
4745;BME280;2386;42.138;24.746;2022-09-09T11:13:23;99647.47;;;27.45;56.09
4745;BME280;2386;42.138;24.746;2022-09-09T11:15:56;99642.81;;;27.49;57.01
4745;BME280;2386;42.138;24.746;2022-09-09T11:18:23;99622.41;;;27.45;57.78
4745;BME280;2386;42.138;24.746;2022-09-09T11:20:53;99642.69;;;27.67;56.96
4745;BME280;2386;42.138;24.746;2022-09-09T11:23:26;99634.09;;;27.72;54.24
4745;BME280;2386;42.138;24.746;2022-09-09T11:25:59;99626.19;;;27.74;55.48
4745;BME280;2386;42.138;24.746;2022-09-09T11:34:19;99615.78;;;27.95;53.98
4745;BME280;2386;42.138;24.746;2022-09-09T11:37:37;99617.88;;;27.98;54.60
4745;BME280;2386;42.138;24.746;2022-09-09T11:42:38;99610.22;;;28.20;52.93
4745;BME280;2386;42.138;24.746;2022-09-09T11:45:25;99613.25;;;28.39;52.46
4745;BME280;2386;42.138;24.746;2022-09-09T11:48:03;99615.09;;;28.71;51.48
4745;BME280;2386;42.138;24.746;2022-09-09T11:50:34;99607.31;;;29.05;51.20
4745;BME280;2386;42.138;24.746;2022-09-09T11:55:39;99601.25;;;29.43;49.95
4745;BME280;2386;42.138;24.746;2022-09-09T12:00:39;99581.66;;;29.71;48.08
4745;BME280;2386;42.138;24.746;2022-09-09T12:03:40;99595.78;;;29.94;47.11
4745;BME280;2386;42.138;24.746;2022-09-09T12:06:17;99579.84;;;30.10;48.63
4745;BME280;2386;42.138;24.746;2022-09-09T12:08:47;99582.34;;;30.31;49.51
4745;BME280;2386;42.138;24.746;2022-09-09T12:11:26;99576.97;;;30.06;45.12
4745;BME280;2386;42.138;24.746;2022-09-09T12:13:59;99565.94;;;29.98;46.12
4745;BME280;2386;42.138;24.746;2022-09-09T12:16:36;99574.88;;;30.03;47.20
4745;BME280;2386;42.138;24.746;2022-09-09T12:19:19;99563.69;;;30.03;46.89
4745;BME280;2386;42.138;24.746;2022-09-09T12:31:06;99557.09;;;29.96;50.10
4745;BME280;2386;42.138;24.746;2022-09-09T12:33:36;99556.09;;;30.20;48.28
4745;BME280;2386;42.138;24.746;2022-09-09T12:36:03;99551.41;;;30.24;47.38
4745;BME280;2386;42.138;24.746;2022-09-09T12:38:36;99550.50;;;30.20;46.87
4745;BME280;2386;42.138;24.746;2022-09-09T12:41:03;99554.91;;;30.21;48.45
4745;BME280;2386;42.138;24.746;2022-09-09T12:43:29;99557.28;;;30.19;47.75
4745;BME280;2386;42.138;24.746;2022-09-09T12:46:00;99545.09;;;30.11;49.78
4745;BME280;2386;42.138;24.746;2022-09-09T12:48:32;99543.53;;;29.98;47.86
4745;BME280;2386;42.138;24.746;2022-09-09T12:50:58;99540.22;;;29.92;46.94
4745;BME280;2386;42.138;24.746;2022-09-09T12:53:31;99532.19;;;29.91;47.36
4745;BME280;2386;42.138;24.746;2022-09-09T12:56:07;99531.81;;;29.92;49.07
4745;BME280;2386;42.138;24.746;2022-09-09T12:58:35;99530.28;;;29.95;48.70
4745;BME280;2386;42.138;24.746;2022-09-09T13:01:03;99534.78;;;29.99;48.67
4745;BME280;2386;42.138;24.746;2022-09-09T13:03:42;99528.72;;;30.48;49.08
4745;BME280;2386;42.138;24.746;2022-09-09T13:06:13;99517.25;;;31.99;47.07
4745;BME280;2386;42.138;24.746;2022-09-09T13:08:39;99510.94;;;34.14;42.48
4745;BME280;2386;42.138;24.746;2022-09-09T13:11:30;99519.81;;;34.92;39.00
4745;BME280;2386;42.138;24.746;2022-09-09T13:13:58;99527.69;;;34.51;39.85
4745;BME280;2386;42.138;24.746;2022-09-09T13:16:33;99523.88;;;34.25;40.26
4745;BME280;2386;42.138;24.746;2022-09-09T13:19:14;99515.41;;;34.98;35.61
4745;BME280;2386;42.138;24.746;2022-09-09T13:21:42;99510.34;;;35.57;36.03
4745;BME280;2386;42.138;24.746;2022-09-09T13:27:17;99508.66;;;35.28;37.72
4745;BME280;2386;42.138;24.746;2022-09-09T13:29:52;99511.88;;;34.32;35.42
4745;BME280;2386;42.138;24.746;2022-09-09T13:32:21;99514.81;;;33.91;37.68
4745;BME280;2386;42.138;24.746;2022-09-09T13:34:51;99511.28;;;33.61;39.93
4745;BME280;2386;42.138;24.746;2022-09-09T13:37:38;99501.78;;;33.76;38.18
4745;BME280;2386;42.138;24.746;2022-09-09T13:40:13;99497.69;;;33.67;37.05
4745;BME280;2386;42.138;24.746;2022-09-09T13:42:42;99486.81;;;33.24;38.83
4745;BME280;2386;42.138;24.746;2022-09-09T13:45:28;99489.03;;;32.75;39.39
4745;BME280;2386;42.138;24.746;2022-09-09T13:47:55;99481.19;;;32.54;40.22
4745;BME280;2386;42.138;24.746;2022-09-09T13:52:55;99483.59;;;32.25;40.48
4745;BME280;2386;42.138;24.746;2022-09-09T13:55:24;99482.66;;;32.18;41.30
4745;BME280;2386;42.138;24.746;2022-09-09T13:58:01;99474.13;;;32.11;41.45
4745;BME280;2386;42.138;24.746;2022-09-09T14:00:30;99474.16;;;32.14;42.79
4745;BME280;2386;42.138;24.746;2022-09-09T14:02:56;99474.88;;;32.08;41.75
4745;BME280;2386;42.138;24.746;2022-09-09T14:05:22;99474.34;;;31.98;42.26
4745;BME280;2386;42.138;24.746;2022-09-09T14:07:48;99474.63;;;31.90;43.04
4745;BME280;2386;42.138;24.746;2022-09-09T14:10:14;99467.56;;;31.73;41.42
4745;BME280;2386;42.138;24.746;2022-09-09T14:12:39;99458.94;;;31.62;42.39
4745;BME280;2386;42.138;24.746;2022-09-09T14:15:07;99455.38;;;31.43;42.52
4745;BME280;2386;42.138;24.746;2022-09-09T14:17:34;99468.72;;;31.26;44.23
4745;BME280;2386;42.138;24.746;2022-09-09T14:20:06;99469.19;;;31.09;43.92
4745;BME280;2386;42.138;24.746;2022-09-09T14:22:32;99470.03;;;30.90;44.25
4745;BME280;2386;42.138;24.746;2022-09-09T14:24:58;99470.03;;;30.71;44.29
4745;BME280;2386;42.138;24.746;2022-09-09T14:27:23;99467.66;;;30.34;44.35
4745;BME280;2386;42.138;24.746;2022-09-09T14:29:51;99469.94;;;30.29;45.09
4745;BME280;2386;42.138;24.746;2022-09-09T14:32:16;99460.22;;;30.23;45.20
4745;BME280;2386;42.138;24.746;2022-09-09T14:34:42;99452.91;;;30.18;46.90
4745;BME280;2386;42.138;24.746;2022-09-09T14:37:07;99447.97;;;30.12;46.47
4745;BME280;2386;42.138;24.746;2022-09-09T14:39:32;99463.41;;;30.05;48.41
4745;BME280;2386;42.138;24.746;2022-09-09T14:41:58;99461.97;;;29.96;45.88
4745;BME280;2386;42.138;24.746;2022-09-09T14:44:23;99458.72;;;29.94;45.57
4745;BME280;2386;42.138;24.746;2022-09-09T14:46:49;99455.22;;;29.81;45.96
4745;BME280;2386;42.138;24.746;2022-09-09T14:49:15;99452.41;;;29.81;45.55
4745;BME280;2386;42.138;24.746;2022-09-09T14:51:41;99447.63;;;29.82;45.81
4745;BME280;2386;42.138;24.746;2022-09-09T14:54:06;99448.72;;;29.77;45.96
4745;BME280;2386;42.138;24.746;2022-09-09T14:56:33;99441.50;;;29.76;47.55
4745;BME280;2386;42.138;24.746;2022-09-09T14:59:02;99448.00;;;29.80;48.34
4745;BME280;2386;42.138;24.746;2022-09-09T15:01:28;99445.66;;;29.82;49.40
4745;BME280;2386;42.138;24.746;2022-09-09T15:03:57;99445.03;;;29.73;47.74
4745;BME280;2386;42.138;24.746;2022-09-09T15:06:30;99443.41;;;29.72;48.96
4745;BME280;2386;42.138;24.746;2022-09-09T15:08:57;99437.31;;;29.66;50.19
4745;BME280;2386;42.138;24.746;2022-09-09T15:11:35;99450.41;;;29.62;49.93
4745;BME280;2386;42.138;24.746;2022-09-09T15:14:05;99448.16;;;29.52;49.00
4745;BME280;2386;42.138;24.746;2022-09-09T15:16:31;99451.31;;;29.51;50.40
4745;BME280;2386;42.138;24.746;2022-09-09T15:18:58;99443.19;;;29.46;50.89
4745;BME280;2386;42.138;24.746;2022-09-09T15:21:28;99452.75;;;29.45;52.72
4745;BME280;2386;42.138;24.746;2022-09-09T15:23:55;99451.09;;;29.28;49.84
4745;BME280;2386;42.138;24.746;2022-09-09T15:26:21;99449.00;;;29.25;49.36
4745;BME280;2386;42.138;24.746;2022-09-09T15:28:50;99436.84;;;29.17;49.77
4745;BME280;2386;42.138;24.746;2022-09-09T15:31:21;99435.13;;;29.13;50.32